Time;durP1;ratioP1;P1;durP2;ratioP2;P2;SDS_P1;SDS_P2;PMS_P1;PMS_P2;Temp;Humidity;BMP_temperature;BMP_pressure;BME280_temperature;BME280_humidity;BME280_pressure;Samples;Min_cycle;Max_cycle;Signal;HPM_P1;HPM_P2
2023/09/14 00:08:09;;;;;;;12.90;10.80;;;;;;;19.96;76.11;96611.23;110425;1258;22523;-96
2023/09/14 00:21:30;;;;;;;11.90;10.40;;;;;;;19.93;76.74;96607.00;109250;1276;22721;-94
2023/09/14 00:35:20;;;;;;;10.60;9.50;;;;;;;19.86;77.37;96598.73;108659;1273;22573;-85
2023/09/14 00:38:29;;;;;;;11.50;10.30;;;;;;;19.81;77.57;96596.64;108306;1276;22655;-85
2023/09/14 00:41:28;;;;;;;11.20;10.10;;;;;;;19.75;77.80;96594.55;108315;1276;22521;-85
2023/09/14 00:44:20;;;;;;;12.70;11.10;;;;;;;19.66;78.02;96596.11;108268;1283;24241;-85
2023/09/14 00:47:07;;;;;;;13.30;10.30;;;;;;;19.59;78.18;96597.89;108276;1277;22645;-85
2023/09/14 00:49:53;;;;;;;13.10;10.90;;;;;;;19.52;78.51;96597.65;108310;1282;22609;-85
2023/09/14 00:53:02;;;;;;;12.10;10.90;;;;;;;19.44;78.73;96594.61;106873;1283;1844695;-85
2023/09/14 00:55:53;;;;;;;12.50;11.20;;;;;;;19.37;79.22;96601.29;108336;1283;22954;-87
2023/09/14 00:58:41;;;;;;;11.70;10.50;;;;;;;19.32;79.56;96598.75;108297;1283;22534;-87
2023/09/14 01:01:28;;;;;;;;;;;;;;;;;;;;;
2023/09/14 01:04:07;;;;;;;12.40;11.00;;;;;;;19.32;80.02;96599.29;108250;1283;51769;-87
2023/09/14 01:06:56;;;;;;;14.00;11.80;;;;;;;19.31;80.19;96602.42;108260;1279;22795;-87
2023/09/14 01:15:50;;;;;;;13.10;11.80;;;;;;;19.27;80.77;96591.91;108301;1283;22529;-86
2023/09/14 01:18:42;;;;;;;13.60;12.20;;;;;;;19.31;80.86;96584.52;108314;1277;22548;-86
2023/09/14 01:22:12;;;;;;;15.10;13.00;;;;;;;19.37;81.06;96584.71;108355;1277;22681;-87
2023/09/14 01:25:20;;;;;;;;;;;;;;;;;;;;;
2023/09/14 01:28:13;;;;;;;13.70;12.30;;;;;;;19.51;80.86;96583.76;108304;1283;24242;-86
2023/09/14 01:31:02;;;;;;;13.20;11.60;;;;;;;19.49;80.83;96588.80;108242;1276;22571;-86
2023/09/14 01:33:48;;;;;;;13.50;11.50;;;;;;;19.48;80.91;96591.73;103959;1282;5342752;-87
2023/09/14 01:37:11;;;;;;;;;;;;;;;;;;;;;
2023/09/14 01:40:22;;;;;;;12.00;10.80;;;;;;;19.51;81.12;96591.08;107636;1288;22533;-87
2023/09/14 01:43:01;;;;;;;13.30;11.90;;;;;;;19.53;81.17;96595.52;106382;1288;2182003;-88
2023/09/14 01:45:47;;;;;;;14.10;11.20;;;;;;;19.55;81.27;96600.41;107758;1289;22561;-87
2023/09/14 01:48:47;;;;;;;11.00;9.80;;;;;;;19.52;81.07;96608.64;107807;1283;22559;-87
2023/09/14 01:51:45;;;;;;;10.50;8.20;;;;;;;19.50;80.79;96611.41;107694;1291;24993;-88
2023/09/14 01:54:45;;;;;;;8.60;7.60;;;;;;;19.45;80.60;96611.11;107764;1290;67215;-87
2023/09/14 01:57:23;;;;;;;9.10;6.80;;;;;;;19.39;80.55;96611.27;107795;1282;22531;-87
2023/09/14 02:00:09;;;;;;;8.70;7.30;;;;;;;19.36;80.55;96610.79;107854;1291;23797;-88
2023/09/14 02:03:11;;;;;;;7.90;7.10;;;;;;;19.35;80.65;96616.73;105804;1287;2514303;-87
2023/09/14 02:06:25;;;;;;;7.40;6.10;;;;;;;19.33;80.40;96611.63;108011;1287;23091;-87
2023/09/14 02:09:09;;;;;;;7.30;6.20;;;;;;;19.27;80.33;96606.25;108070;1280;24335;-88
2023/09/14 02:11:46;;;;;;;10.30;5.70;;;;;;;19.20;80.32;96605.80;108034;1283;22675;-88
2023/09/14 02:14:34;;;;;;;11.20;5.70;;;;;;;19.15;80.56;96604.73;107905;1283;90847;-87
2023/09/14 02:17:21;;;;;;;8.00;5.50;;;;;;;19.09;80.79;96601.60;108048;1287;22722;-88
2023/09/14 02:20:17;;;;;;;7.00;4.80;;;;;;;19.01;80.73;96601.02;108027;1271;22544;-87
2023/09/14 02:22:58;;;;;;;5.40;4.80;;;;;;;18.90;80.88;96608.05;108006;1280;54007;-87
2023/09/14 02:25:33;;;;;;;5.90;4.70;;;;;;;18.79;81.14;96610.84;107981;1287;24399;-87
2023/09/14 02:28:35;;;;;;;9.70;7.20;;;;;;;18.68;81.60;96607.88;108071;1280;22766;-87
2023/09/14 02:31:33;;;;;;;8.10;6.60;;;;;;;18.61;81.91;96608.45;108032;1287;22494;-87
2023/09/14 02:34:18;;;;;;;10.30;8.90;;;;;;;18.57;82.38;96611.66;106253;1280;2366135;-87
2023/09/14 02:37:00;;;;;;;11.10;9.80;;;;;;;18.54;82.90;96620.85;108030;1287;25312;-87
2023/09/14 02:39:48;;;;;;;13.70;12.30;;;;;;;18.53;83.35;96627.40;108045;1286;22541;-87
2023/09/14 02:42:24;;;;;;;14.00;12.60;;;;;;;18.53;84.01;96631.16;108048;1286;22528;-87
2023/09/14 02:45:11;;;;;;;13.50;12.10;;;;;;;18.56;84.35;96630.94;108018;1283;22638;-87
2023/09/14 02:48:01;;;;;;;13.40;12.00;;;;;;;18.54;84.47;96635.95;108042;1282;22580;-87
2023/09/14 02:50:47;;;;;;;12.30;11.10;;;;;;;18.54;84.75;96638.00;107793;1291;22731;-87
2023/09/14 02:53:36;;;;;;;13.40;11.40;;;;;;;18.48;84.63;96645.26;105900;1269;2546926;-87
2023/09/14 02:56:47;;;;;;;12.80;11.50;;;;;;;18.36;84.94;96640.13;107771;1291;25347;-86
2023/09/14 02:59:50;;;;;;;14.30;12.50;;;;;;;18.26;85.76;96641.43;107782;1291;23239;-87
2023/09/14 03:02:51;;;;;;;12.20;10.70;;;;;;;18.22;86.32;96639.70;107720;1291;54903;-86
2023/09/14 03:05:37;;;;;;;11.80;10.60;;;;;;;18.22;86.81;96637.99;107749;1286;22946;-88
2023/09/14 03:08:23;;;;;;;11.50;12.80;;;;;;;18.22;86.92;96635.56;107783;1291;22847;-87
2023/09/14 03:11:11;;;;;;;9.10;8.10;;;;;;;18.20;87.14;96636.30;107774;1291;25065;-86
2023/09/14 03:14:35;;;;;;;8.70;6.70;;;;;;;18.22;87.09;96635.77;105362;1308;545287;-86
2023/09/14 03:17:22;;;;;;;8.10;7.30;;;;;;;18.15;87.55;96640.52;108694;1276;22531;-86
2023/09/14 03:19:59;;;;;;;9.10;8.10;;;;;;;18.17;87.73;96650.16;108805;1278;22541;-86
2023/09/14 03:23:22;;;;;;;10.40;8.90;;;;;;;18.16;87.89;96657.23;108914;1270;149347;-86
2023/09/14 03:26:28;;;;;;;10.90;9.50;;;;;;;18.11;88.18;96664.88;108552;1280;22537;-86
2023/09/14 03:29:30;;;;;;;9.50;8.10;;;;;;;18.12;88.74;96661.75;108533;1271;268540;-87
2023/09/14 03:32:19;;;;;;;8.30;7.30;;;;;;;18.18;88.67;96662.54;108815;1277;22824;-86
2023/09/14 03:37:49;;;;;;;8.50;7.60;;;;;;;18.15;88.73;96674.63;108638;1277;23424;-86
2023/09/14 03:44:12;;;;;;;8.30;7.50;;;;;;;18.11;89.17;96684.27;108716;1271;64724;-86
2023/09/14 03:47:01;;;;;;;7.90;7.10;;;;;;;18.09;89.45;96679.14;108757;1277;22565;-86
2023/09/14 03:50:03;;;;;;;;;;;;;;;;;;;;;
2023/09/14 03:52:54;;;;;;;11.50;8.30;;;;;;;18.09;89.85;96667.79;106865;1271;2425599;-87
2023/09/14 03:55:41;;;;;;;10.30;7.40;;;;;;;18.19;90.25;96658.50;108856;1271;22546;-86
2023/09/14 03:58:36;;;;;;;9.50;8.50;;;;;;;18.26;90.19;96654.40;108807;1278;22899;-86
2023/09/14 04:01:12;;;;;;;11.70;8.00;;;;;;;18.29;90.16;96656.06;108668;1277;22501;-86
2023/09/14 04:03:45;;;;;;;10.70;8.60;;;;;;;18.32;90.21;96653.96;105565;1273;4354111;-87
2023/09/14 04:06:32;;;;;;;10.10;7.90;;;;;;;18.38;90.24;96666.67;108770;1275;25259;-87
2023/09/14 04:09:16;;;;;;;19.60;16.10;;;;;;;18.41;90.31;96669.75;108787;1277;22580;-86
2023/09/14 04:12:02;;;;;;;12.50;9.60;;;;;;;18.47;90.22;96681.02;108748;1277;22543;-87
2023/09/14 04:14:36;;;;;;;10.70;9.30;;;;;;;18.47;90.04;96684.25;108700;1272;44709;-87
2023/09/14 04:17:17;;;;;;;9.30;8.20;;;;;;;18.46;90.05;96687.35;109033;1265;22511;-87
2023/09/14 04:20:09;;;;;;;10.50;9.30;;;;;;;18.47;90.19;96692.14;109129;1256;22521;-86
2023/09/14 04:23:03;;;;;;;10.70;8.60;;;;;;;18.48;90.27;96692.64;107225;1265;2589522;-86
2023/09/14 04:25:44;;;;;;;9.50;8.60;;;;;;;18.46;90.29;96690.20;109164;1266;25233;-86
2023/09/14 04:28:25;;;;;;;10.30;8.90;;;;;;;18.45;90.32;96694.20;109143;1266;24223;-86
2023/09/14 04:31:21;;;;;;;10.80;8.80;;;;;;;18.43;90.39;96693.00;109097;1262;22566;-86
2023/09/14 04:33:56;;;;;;;8.80;7.90;;;;;;;18.44;90.48;96696.16;107278;1272;2476025;-86
2023/09/14 04:36:38;;;;;;;11.70;8.50;;;;;;;18.39;90.50;96691.11;109084;1269;22539;-86
2023/09/14 04:39:14;;;;;;;10.70;8.10;;;;;;;18.29;90.54;96688.78;109071;1274;22570;-86
2023/09/14 04:41:58;;;;;;;;;;;;;;;18.21;91.01;96691.79;109136;1272;24337;-86
2023/09/14 04:44:34;;;;;;;12.30;11.00;;;;;;;18.17;91.30;96690.56;107192;1266;2567621;-86
2023/09/14 04:47:15;;;;;;;10.70;9.70;;;;;;;18.11;91.48;96692.54;109126;1269;22555;-86
2023/09/14 04:49:50;;;;;;;10.90;9.80;;;;;;;18.12;92.03;96690.83;109131;1269;24687;-86
2023/09/14 04:52:21;;;;;;;10.80;9.00;;;;;;;18.16;92.21;96690.06;109137;1266;22982;-86
2023/09/14 04:54:53;;;;;;;10.30;9.20;;;;;;;18.20;92.35;96688.67;109139;1272;44487;-86
2023/09/14 04:57:25;;;;;;;9.30;8.40;;;;;;;18.21;92.60;96693.69;109137;1272;22518;-86
2023/09/14 04:59:58;;;;;;;10.40;9.20;;;;;;;18.22;92.64;96693.13;109137;1269;22503;-86
2023/09/14 05:02:41;;;;;;;8.70;7.70;;;;;;;18.20;92.63;96698.98;109119;1268;22993;-86
2023/09/14 05:05:21;;;;;;;6.30;5.70;;;;;;;18.18;92.79;96696.74;107634;1271;2025609;-85
2023/09/14 05:07:58;;;;;;;6.80;6.10;;;;;;;18.14;92.27;96697.96;109123;1272;22858;-86
2023/09/14 05:10:49;;;;;;;5.60;5.00;;;;;;;18.11;92.77;96692.85;109119;1266;23193;-86
2023/09/14 05:13:24;;;;;;;5.20;4.70;;;;;;;18.08;92.59;96694.49;109108;1266;45762;-86
2023/09/14 05:16:07;;;;;;;5.10;4.60;;;;;;;18.04;92.65;96696.06;109191;1265;25959;-86
2023/09/14 05:18:47;;;;;;;5.00;4.50;;;;;;;17.98;92.66;96690.05;109151;1271;22516;-85
2023/09/14 05:21:28;;;;;;;5.20;4.70;;;;;;;18.00;92.81;96696.41;109205;1272;22507;-85
2023/09/14 05:24:04;;;;;;;4.50;4.10;;;;;;;18.00;92.83;96700.32;107855;1265;1743838;-85
2023/09/14 05:26:45;;;;;;;4.40;4.00;;;;;;;17.99;92.88;96696.96;109114;1270;25426;-86
2023/09/14 05:29:19;;;;;;;4.70;4.20;;;;;;;17.97;92.98;96693.66;109175;1266;23550;-85
2023/09/14 05:31:50;;;;;;;4.50;3.90;;;;;;;17.96;93.38;96693.95;109352;1266;23817;-85
2023/09/14 05:34:22;;;;;;;4.90;4.50;;;;;;;17.93;93.44;96690.93;105080;1266;5363342;-85
2023/09/14 05:37:00;;;;;;;4.60;4.20;;;;;;;17.96;93.62;96692.66;109165;1269;22550;-85
2023/09/14 05:39:36;;;;;;;3.50;3.20;;;;;;;17.97;93.79;96700.04;109152;1270;22634;-85
2023/09/14 05:42:11;;;;;;;3.90;2.80;;;;;;;17.96;93.70;96699.23;109221;1266;22539;-86
2023/09/14 05:44:54;;;;;;;2.30;2.10;;;;;;;17.94;93.44;96703.84;109111;1272;50996;-86
2023/09/14 05:47:33;;;;;;;2.40;2.10;;;;;;;17.89;93.15;96704.19;109160;1264;24231;-85
2023/09/14 05:50:10;;;;;;;2.30;2.00;;;;;;;17.87;93.19;96706.23;109181;1265;24190;-85
2023/09/14 05:53:02;;;;;;;1.80;1.70;;;;;;;17.87;93.20;96706.89;109165;1272;22521;-86
2023/09/14 05:55:36;;;;;;;1.90;1.70;;;;;;;17.85;93.04;96713.02;109159;1269;22511;-85
2023/09/14 05:58:26;;;;;;;2.20;2.00;;;;;;;17.86;93.27;96715.29;109178;1266;22508;-86
2023/09/14 06:01:05;;;;;;;2.00;1.90;;;;;;;17.83;92.81;96718.34;109137;1272;22553;-86
2023/09/14 06:03:46;;;;;;;2.60;2.20;;;;;;;17.78;92.82;96720.23;106334;1264;3813954;-86
2023/09/14 06:06:18;;;;;;;3.20;2.00;;;;;;;17.76;92.83;96719.52;109149;1265;23381;-85
2023/09/14 06:08:49;;;;;;;3.80;2.50;;;;;;;17.75;92.99;96721.19;109185;1267;22533;-86
2023/09/14 06:11:21;;;;;;;3.70;2.80;;;;;;;17.71;92.78;96718.09;109155;1265;22476;-86
2023/09/14 06:14:08;;;;;;;4.00;3.60;;;;;;;17.68;92.96;96723.23;109069;1268;64353;-86
2023/09/14 06:16:53;;;;;;;5.40;3.60;;;;;;;17.66;93.12;96728.11;109142;1269;22584;-88
2023/09/14 06:19:47;;;;;;;4.60;3.40;;;;;;;17.66;93.40;96729.35;109163;1269;24909;-87
2023/09/14 06:27:00;;;;;;;3.30;2.80;;;;;;;17.64;93.62;96727.59;107861;1282;22526;-91
2023/09/14 08:59:26;;;;;;;9.00;7.50;;;;;;;17.14;96.89;96858.80;108678;1272;418894;-70
2023/09/14 09:01:57;;;;;;;;;;;;;;;17.16;96.77;96862.74;110719;1256;22479;-70
2023/09/14 09:04:25;;;;;;;;;;;;;;;17.09;96.18;96856.73;110687;1256;22741;-78
2023/09/14 09:06:57;;;;;;;8.40;6.90;;;;;;;17.03;97.01;96854.77;110254;1255;262860;-80
2023/09/14 09:09:28;;;;;;;6.80;6.10;;;;;;;17.05;97.27;96860.27;113075;1249;22242;-81
2023/09/14 09:12:00;;;;;;;7.10;6.40;;;;;;;17.04;97.09;96862.23;112551;1242;22507;-80
2023/09/14 09:14:41;;;;;;;7.80;6.60;;;;;;;17.04;97.20;96862.39;113565;1244;22808;-81
2023/09/14 09:17:13;;;;;;;6.60;5.80;;;;;;;17.03;97.00;96863.10;113471;1244;61174;-81
2023/09/14 09:19:56;;;;;;;6.60;5.30;;;;;;;17.04;97.39;96861.04;112347;1244;22841;-80
2023/09/14 09:22:28;;;;;;;6.50;5.40;;;;;;;17.03;96.84;96863.64;112161;1244;22488;-80
2023/09/14 09:25:03;;;;;;;5.50;5.00;;;;;;;16.98;97.12;96862.13;112020;1244;22517;-80
2023/09/14 09:27:42;;;;;;;6.70;5.50;;;;;;;17.00;97.24;96868.55;112020;1244;25238;-80
2023/09/14 09:30:13;;;;;;;6.50;5.10;;;;;;;17.01;97.44;96868.45;112022;1244;25401;-80
2023/09/14 09:32:44;;;;;;;6.40;4.60;;;;;;;17.07;97.64;96871.94;112022;1243;22502;-80
2023/09/14 09:35:25;;;;;;;5.50;4.40;;;;;;;17.11;97.60;96870.02;111927;1244;102815;-80
2023/09/14 09:37:58;;;;;;;4.80;4.30;;;;;;;17.17;97.63;96877.58;111983;1244;22527;-80
2023/09/14 09:40:28;;;;;;;6.70;4.80;;;;;;;17.12;97.09;96870.98;111960;1244;22548;-80
2023/09/14 09:43:07;;;;;;;7.10;4.70;;;;;;;17.11;97.00;96877.65;112034;1244;22853;-80
2023/09/14 09:45:42;;;;;;;4.10;3.70;;;;;;;17.04;96.92;96881.17;111961;1244;43380;-80
2023/09/14 09:48:13;;;;;;;5.30;4.10;;;;;;;16.95;96.18;96883.64;112047;1244;22584;-80
2023/09/14 09:50:56;;;;;;;4.50;3.70;;;;;;;16.93;96.70;96886.00;112003;1244;23227;-80
2023/09/14 09:53:26;;;;;;;5.30;4.10;;;;;;;16.94;96.90;96887.52;111991;1233;23968;-80
2023/09/14 09:55:55;;;;;;;5.30;4.20;;;;;;;16.89;96.87;96887.98;111971;1244;42682;-81
2023/09/14 09:58:35;;;;;;;5.50;4.60;;;;;;;16.89;97.15;96888.66;111996;1244;22497;-80
2023/09/14 10:01:09;;;;;;;5.70;4.70;;;;;;;16.95;97.44;96888.15;112030;1244;22581;-80
2023/09/14 10:03:38;;;;;;;6.10;5.00;;;;;;;17.06;98.04;96891.29;111977;1243;22543;-80
2023/09/14 10:06:09;;;;;;;6.20;4.80;;;;;;;17.14;97.53;96892.05;109210;1244;3581473;-81
2023/09/14 10:08:37;;;;;;;5.90;4.70;;;;;;;17.14;97.28;96892.49;111790;1244;22582;-80
2023/09/14 10:11:10;;;;;;;6.50;4.00;;;;;;;17.22;97.40;96892.33;111985;1244;22531;-80
2023/09/14 10:13:39;;;;;;;6.10;4.30;;;;;;;17.27;97.25;96889.98;111987;1244;22517;-80
2023/09/14 10:16:25;;;;;;;4.10;3.70;;;;;;;17.28;97.35;96884.48;110064;1244;2295109;-80
2023/09/14 10:18:59;;;;;;;5.40;3.90;;;;;;;17.41;97.51;96890.78;112005;1244;24351;-80
2023/09/14 10:21:40;;;;;;;5.10;4.30;;;;;;;17.39;96.56;96890.00;111993;1237;22488;-80
2023/09/14 10:24:12;;;;;;;4.70;4.20;;;;;;;17.30;96.36;96891.80;111961;1244;22544;-81
2023/09/14 10:26:44;;;;;;;4.10;3.40;;;;;;;17.31;96.70;96892.21;108727;1244;4300817;-81
2023/09/14 10:29:14;;;;;;;5.50;4.20;;;;;;;17.31;96.48;96894.25;112125;1243;22867;-81
2023/09/14 10:31:53;;;;;;;4.40;3.80;;;;;;;17.28;96.14;96897.92;112108;1243;25536;-80
2023/09/14 10:34:29;;;;;;;4.00;3.50;;;;;;;17.22;95.74;96901.12;112121;1243;22600;-80
2023/09/14 10:37:12;;;;;;;4.30;3.80;;;;;;;17.16;95.68;96901.98;110681;1244;1822150;-80
2023/09/14 10:39:46;;;;;;;4.30;3.90;;;;;;;17.12;96.14;96895.39;112159;1243;22502;-80
2023/09/14 10:42:15;;;;;;;5.00;3.80;;;;;;;17.18;96.38;96904.61;112110;1244;23955;-81
2023/09/14 10:44:49;;;;;;;4.80;3.90;;;;;;;17.17;96.16;96904.67;112104;1244;22517;-81
2023/09/14 10:47:36;;;;;;;6.20;3.80;;;;;;;17.12;95.80;96912.44;112101;1244;60931;-81
2023/09/14 10:50:48;;;;;;;4.20;3.80;;;;;;;17.08;95.81;96906.45;111872;1244;22777;-81
2023/09/14 10:53:17;;;;;;;4.70;3.80;;;;;;;17.03;96.18;96902.15;111792;1244;22504;-80
2023/09/14 10:59:05;;;;;;;5.50;3.80;;;;;;;17.13;95.01;96913.70;111721;1244;22491;-80
2023/09/14 11:01:39;;;;;;;3.70;3.40;;;;;;;17.07;95.07;96916.41;112085;1244;22622;-80
2023/09/14 11:04:13;;;;;;;4.00;3.50;;;;;;;17.04;95.34;96904.20;112079;1229;22586;-80
2023/09/14 11:06:54;;;;;;;5.10;3.90;;;;;;;17.10;95.25;96907.09;112065;1244;61457;-80
2023/09/14 11:09:23;;;;;;;7.80;3.80;;;;;;;17.10;95.37;96910.45;112107;1244;23683;-80
2023/09/14 11:12:36;;;;;;;4.30;3.40;;;;;;;17.09;95.39;96909.00;111862;1244;24291;-80
2023/09/14 11:15:22;;;;;;;4.60;3.60;;;;;;;17.13;95.69;96912.63;112087;1244;23821;-80
2023/09/14 11:17:54;;;;;;;3.80;3.20;;;;;;;17.16;95.72;96916.71;112106;1244;107326;-80
2023/09/14 11:20:46;;;;;;;6.10;4.10;;;;;;;17.18;95.40;96921.16;112189;1244;22527;-80
2023/09/14 11:23:15;;;;;;;5.40;3.80;;;;;;;17.22;95.82;96922.45;111832;1244;22658;-80
2023/09/14 11:25:53;;;;;;;5.80;3.90;;;;;;;17.29;95.71;96923.55;110530;1240;2036543;-80
2023/09/14 11:28:25;;;;;;;4.30;3.30;;;;;;;17.33;95.37;96927.34;112104;1244;22509;-80
2023/09/14 11:30:54;;;;;;;5.00;3.30;;;;;;;17.40;95.66;96925.27;111955;1244;22502;-80
2023/09/14 11:33:23;;;;;;;3.90;3.20;;;;;;;17.51;95.71;96930.90;112082;1244;22604;-80
2023/09/14 11:35:54;;;;;;;4.70;3.50;;;;;;;17.57;95.25;96932.63;112102;1244;48923;-80
2023/09/14 11:38:31;;;;;;;5.40;3.50;;;;;;;17.58;94.72;96926.47;112134;1240;23767;-80
2023/09/14 11:41:03;;;;;;;5.70;3.60;;;;;;;17.64;94.48;96932.05;112017;1244;22637;-80
2023/09/14 11:44:10;;;;;;;5.30;4.20;;;;;;;17.66;94.36;96927.63;112075;1244;22986;-80
2023/09/14 11:46:51;;;;;;;5.20;4.20;;;;;;;17.67;94.12;96937.44;110056;1244;2582671;-80
2023/09/14 11:49:22;;;;;;;7.00;4.40;;;;;;;17.71;94.27;96938.69;112084;1244;22667;-80
2023/09/14 11:52:07;;;;;;;5.20;3.80;;;;;;;17.70;93.89;96940.05;112098;1244;22471;-80
2023/09/14 11:55:13;;;;;;;5.50;4.10;;;;;;;17.75;93.69;96940.48;112095;1244;22501;-80
2023/09/14 11:57:53;;;;;;;5.00;4.40;;;;;;;17.72;93.19;96938.54;109786;1244;2621629;-80
2023/09/14 12:00:25;;;;;;;5.10;4.30;;;;;;;17.70;93.28;96940.11;112120;1244;22509;-79
2023/09/14 12:02:56;;;;;;;5.50;4.10;;;;;;;17.65;93.23;96939.30;112077;1244;22635;-79
2023/09/14 12:05:32;;;;;;;6.00;4.40;;;;;;;17.62;92.98;96940.22;111943;1242;23644;-79
2023/09/14 12:08:12;;;;;;;5.60;4.70;;;;;;;17.52;92.69;96934.88;111859;1244;44890;-79
2023/09/14 12:10:41;;;;;;;5.80;4.70;;;;;;;17.42;92.40;96934.11;112017;1244;25269;-79
2023/09/14 12:13:12;;;;;;;5.30;4.80;;;;;;;17.35;92.47;96934.46;111934;1242;22524;-79
2023/09/14 12:15:45;;;;;;;5.70;5.10;;;;;;;17.28;92.51;96933.39;111914;1237;22507;-79
2023/09/14 12:18:16;;;;;;;7.30;4.60;;;;;;;17.21;92.69;96941.56;111977;1244;22534;-79
2023/09/14 12:20:47;;;;;;;5.20;4.60;;;;;;;17.15;92.80;96945.51;111942;1237;22612;-79
2023/09/14 12:23:16;;;;;;;5.60;4.30;;;;;;;17.10;92.92;96932.55;111671;1244;25244;-79
2023/09/14 12:25:45;;;;;;;5.30;4.60;;;;;;;17.14;93.21;96942.10;111880;1244;24211;-79
2023/09/14 12:28:13;;;;;;;5.20;4.30;;;;;;;17.12;93.36;96946.58;111955;1244;22511;-79
2023/09/14 12:30:42;;;;;;;6.10;4.00;;;;;;;17.17;93.93;96950.05;111947;1244;22505;-79
2023/09/14 12:33:12;;;;;;;6.00;4.80;;;;;;;17.31;94.65;96950.11;111964;1244;23188;-79
2023/09/14 12:35:45;;;;;;;5.80;4.30;;;;;;;17.46;94.82;96951.27;112172;1244;23644;-80
2023/09/14 12:38:15;;;;;;;7.10;4.50;;;;;;;17.62;94.75;96948.23;111917;1244;46347;-80
2023/09/14 12:40:43;;;;;;;5.90;5.00;;;;;;;17.68;94.26;96947.55;111970;1244;25232;-79
2023/09/14 12:43:18;;;;;;;5.80;5.20;;;;;;;17.68;93.80;96946.04;111937;1244;23134;-79
2023/09/14 12:45:53;;;;;;;5.80;4.90;;;;;;;17.64;93.41;96947.13;112132;1243;22783;-79
2023/09/14 12:48:29;;;;;;;8.90;5.30;;;;;;;17.63;93.45;96946.05;111938;1243;23040;-79
2023/09/14 12:50:59;;;;;;;7.00;5.30;;;;;;;17.57;93.43;96946.80;111968;1243;22588;-80
2023/09/14 12:53:35;;;;;;;6.70;5.60;;;;;;;17.52;93.52;96946.58;111688;1243;22624;-79
2023/09/14 12:56:04;;;;;;;6.90;5.60;;;;;;;17.51;93.20;96950.27;111851;1243;69129;-80
2023/09/14 12:58:39;;;;;;;6.90;6.00;;;;;;;17.44;92.85;96950.04;111844;1243;22814;-80
2023/09/14 13:01:08;;;;;;;8.00;5.70;;;;;;;17.37;92.76;96950.09;111715;1243;23245;-80
2023/09/14 13:03:40;;;;;;;6.50;5.60;;;;;;;17.36;93.17;96950.60;112209;1243;22465;-80
2023/09/14 13:06:16;;;;;;;9.10;5.80;;;;;;;17.36;93.16;96948.99;112125;1243;47737;-80
2023/09/14 13:08:48;;;;;;;6.90;6.20;;;;;;;17.37;92.90;96955.30;112143;1243;22496;-80
2023/09/14 13:11:31;;;;;;;5.80;5.10;;;;;;;17.32;92.77;96958.33;112064;1243;22510;-80
2023/09/14 13:14:06;;;;;;;7.20;5.70;;;;;;;17.34;93.17;96958.55;112115;1243;22551;-80
2023/09/14 13:16:35;;;;;;;7.20;6.40;;;;;;;17.35;93.14;96955.14;110492;1244;2061354;-80
2023/09/14 13:19:08;;;;;;;5.10;4.10;;;;;;;17.37;93.12;96959.84;112106;1244;22521;-80
2023/09/14 13:21:43;;;;;;;8.00;6.50;;;;;;;17.41;93.39;96958.48;112093;1240;22503;-80
2023/09/14 13:24:20;;;;;;;7.90;6.40;;;;;;;17.45;93.44;96963.34;112104;1240;22537;-80
2023/09/14 13:26:51;;;;;;;9.00;6.40;;;;;;;17.46;93.22;96965.25;112069;1244;54713;-80
2023/09/14 13:29:24;;;;;;;8.90;7.50;;;;;;;17.45;93.13;96964.80;112076;1244;22566;-80
2023/09/14 13:31:55;;;;;;;8.80;7.00;;;;;;;17.49;93.61;96967.97;112091;1244;22516;-80
2023/09/14 13:34:27;;;;;;;8.50;7.20;;;;;;;17.55;93.82;96964.39;112105;1242;22533;-80
2023/09/14 13:36:58;;;;;;;12.90;8.00;;;;;;;17.60;93.61;96959.70;109763;1244;3025505;-80
2023/09/14 13:39:31;;;;;;;11.30;8.60;;;;;;;17.59;93.29;96957.94;112125;1244;22589;-80
2023/09/14 13:41:59;;;;;;;12.30;8.40;;;;;;;17.55;93.14;96956.45;112078;1244;23683;-80
2023/09/14 13:44:39;;;;;;;13.20;9.30;;;;;;;17.53;93.18;96956.58;112110;1244;22530;-80
2023/09/14 13:47:08;;;;;;;11.20;8.40;;;;;;;17.50;93.11;96950.46;110378;1244;2246051;-80
2023/09/14 13:49:39;;;;;;;11.60;8.30;;;;;;;17.47;93.14;96952.27;112121;1244;22542;-80
2023/09/14 13:52:12;;;;;;;11.00;9.30;;;;;;;17.47;93.40;96952.32;112076;1244;22503;-80
2023/09/14 13:54:45;;;;;;;11.60;8.90;;;;;;;17.46;93.24;96948.64;112123;1244;22570;-80
2023/09/14 13:57:19;;;;;;;11.50;8.60;;;;;;;17.45;93.08;96949.25;112095;1244;40998;-80
2023/09/14 13:59:49;;;;;;;11.70;9.00;;;;;;;17.43;92.95;96948.92;112117;1244;24220;-80
2023/09/14 14:02:23;;;;;;;10.90;9.30;;;;;;;17.40;93.07;96949.84;112084;1244;22477;-80
2023/09/14 14:04:55;;;;;;;10.90;9.00;;;;;;;17.38;92.98;96949.09;112105;1244;22581;-80
2023/09/14 14:07:38;;;;;;;10.80;8.80;;;;;;;17.34;93.09;96954.27;108856;1244;4295722;-80
2023/09/14 14:10:16;;;;;;;12.80;9.30;;;;;;;17.31;93.11;96954.17;112118;1244;22569;-80
2023/09/14 14:12:49;;;;;;;11.50;9.30;;;;;;;17.27;92.82;96950.33;111798;1239;22534;-80
2023/09/14 14:15:24;;;;;;;11.40;9.50;;;;;;;17.23;92.94;96953.13;112068;1244;22500;-80
2023/09/14 14:17:57;;;;;;;13.40;9.50;;;;;;;17.21;93.16;96954.59;108211;1244;5032415;-80
2023/09/14 14:20:37;;;;;;;11.70;9.30;;;;;;;17.19;93.21;96951.23;112095;1244;23550;-80
2023/09/14 14:23:09;;;;;;;12.50;10.40;;;;;;;17.17;93.26;96954.94;112065;1244;22499;-80
2023/09/14 14:25:41;;;;;;;12.50;10.20;;;;;;;17.15;93.41;96954.61;112069;1244;22495;-80
2023/09/14 14:28:14;;;;;;;12.10;10.80;;;;;;;17.13;93.35;96952.91;110187;1244;2469103;-80
2023/09/14 14:30:49;;;;;;;13.90;11.00;;;;;;;17.12;93.35;96953.77;112084;1244;24134;-80
2023/09/14 14:33:25;;;;;;;12.20;10.70;;;;;;;17.09;93.39;96949.56;112063;1244;25998;-80
2023/09/14 14:36:11;;;;;;;12.70;11.40;;;;;;;17.07;93.65;96949.03;112068;1244;22515;-80
2023/09/14 14:38:56;;;;;;;15.10;11.70;;;;;;;17.05;93.67;96948.56;112085;1244;49138;-80
2023/09/14 14:41:25;;;;;;;13.20;11.80;;;;;;;17.04;93.81;96949.88;112094;1244;23645;-80
2023/09/14 14:44:10;;;;;;;14.30;12.10;;;;;;;17.02;93.90;96951.52;111785;1244;22522;-80
2023/09/14 14:46:42;;;;;;;14.10;11.90;;;;;;;17.01;94.10;96952.94;110497;1244;2054085;-80
2023/09/14 14:49:19;;;;;;;14.20;12.40;;;;;;;16.99;94.19;96956.73;112116;1244;24165;-80
2023/09/14 14:51:56;;;;;;;14.00;12.60;;;;;;;16.96;94.47;96958.70;112085;1244;22511;-80
2023/09/14 14:54:35;;;;;;;13.50;12.10;;;;;;;16.95;94.36;96961.91;112067;1244;22515;-80
2023/09/14 14:57:22;;;;;;;13.40;11.70;;;;;;;16.94;94.13;96966.77;112059;1244;38184;-80
2023/09/14 14:59:55;;;;;;;13.20;11.80;;;;;;;16.94;94.35;96967.77;112074;1244;22556;-81
2023/09/14 15:02:35;;;;;;;13.00;11.50;;;;;;;16.91;94.43;96963.25;112100;1244;22536;-80
2023/09/14 16:56:07;;;;;;;15.50;13.10;;;;;;;17.04;94.80;97043.03;113291;1235;963330;-86
2023/09/14 16:58:36;;;;;;;14.80;13.20;;;;;;;17.02;94.95;97042.27;112198;1244;74671;-85
2023/09/14 17:01:13;;;;;;;15.70;11.90;;;;;;;17.03;95.00;97047.60;112185;1238;22605;-85
2023/09/14 17:03:54;;;;;;;15.80;12.90;;;;;;;17.02;95.01;97052.64;112164;1244;22507;-85
2023/09/14 17:06:30;;;;;;;14.30;12.50;;;;;;;16.96;95.02;97047.36;112146;1244;24254;-84
2023/09/14 17:09:06;;;;;;;14.20;12.30;;;;;;;16.99;95.14;97059.83;112115;1244;54609;-84
2023/09/14 17:11:40;;;;;;;15.40;12.80;;;;;;;16.97;95.20;97060.35;111904;1244;22588;-85
2023/09/14 17:14:12;;;;;;;15.90;11.80;;;;;;;16.95;95.24;97064.75;112136;1244;25231;-84
2023/09/14 17:16:42;;;;;;;12.50;11.10;;;;;;;16.94;95.40;97066.61;112197;1244;22516;-86
2023/09/14 17:19:13;;;;;;;13.80;11.90;;;;;;;16.92;95.41;97066.33;112195;1244;107563;-84
2023/09/14 17:21:49;;;;;;;13.50;11.10;;;;;;;16.93;95.60;97066.89;112132;1244;22475;-84
2023/09/14 17:24:26;;;;;;;15.20;12.60;;;;;;;16.92;95.47;97069.82;112169;1244;22502;-84
2023/09/14 17:26:55;;;;;;;12.90;11.50;;;;;;;16.87;95.59;97067.23;112241;1244;22552;-84
2023/09/14 17:29:26;;;;;;;13.60;11.90;;;;;;;16.83;95.46;97075.88;112181;1243;50939;-84
2023/09/14 17:32:05;;;;;;;14.00;11.40;;;;;;;16.81;95.59;97076.40;112229;1244;22595;-84
2023/09/14 17:34:37;;;;;;;11.90;10.60;;;;;;;16.80;95.50;97079.93;112164;1244;22577;-84